Erie, MI

8:23 PM EDT on September 02, 2015 (GMT -0400)
South County, Erie, MI | | Change Station
CLOSE
Current Station
Personal Weather Station
Location: Erie, MI
Elevation: 576 ft
Nearby Weather Stations

Elev 576 ft 41.76 °N, 83.50 °W | Updated 19 seconds ago

Clear
Clear
77.1 °F
Feels Like 79 °F
N
0.0
Wind Variable Wind from WSW
Gusts 1.0 mph

Today
High -- | Low -- °F
--% Chance of Precip.
Yesterday
High -- | Low -- °F
Precip. -- in
7:00 AM 8:06 PM
Waning Gibbous, 76% visible
Pressure 29.98 in
Visibility 7.0 miles
Clouds Clear
Heat Index 79 °F
Dew Point 72 °F
Humidity 85%
Rainfall 1.32 in
Snow Depth Not available.
UV 0 out of 12
Pollen 10.30 out of 12
Air Quality Not available.
Flu Activity Not available.
METAR KDUH 030015Z AUTO 00000KT 7SM CLR 25/23 A2998 RMK AO2 T02510227
Pressure 29.98 in
Visibility 7.0 miles
Clouds Clear
Heat Index 79 °F
Dew Point 72 °F
Humidity 85%
Rainfall 1.32 in
Snow Depth Not available.
UV 0 out of 12
Pollen 10.30 out of 12
Air Quality Not available.
Flu Activity Not available.
METAR KDUH 030015Z AUTO 00000KT 7SM CLR 25/23 A2998 RMK AO2 T02510227

10-Day Weather Forecast

×

Almanac

Astronomy

Sep. 02, 2015 Rise Set
Actual Time
Civil Twilight
Nautical Twilight
Astronomical Twilight
Moon
Length of Visible Light
Length of Day
Tomorrow will be .
, % of the Moon is Illuminated

Today's Extremes

State Highs State Lows

Community

WunderPhotos

Upload Photos

1,851,849 photos uploaded!

WunderBlogs® & News

Nearby

Air Quality

  Air Quality AQ Index Pollutant
Not available.

Snow Depth

Station Depth Elevation

Earthquake Activity

City Distance Mag. Time & Date
Minimum magnitude displayed is 2.5.

Coastal Water Temperatures

Place Temperature

Stations

Nearby Weather Stations

Station Location Temp. Windchill Dew Point Humidity Wind Precip. Elev Updated Type